sensor_id;sensor_type;location;lat;lon;timestamp;pressure;altitude;pressure_sealevel;temperature;humidity
39209;BME280;24929;51.982;4.664;2023-01-31T00:00:56;78506.81;;;-143.36;nan
39209;BME280;24929;51.982;4.664;2023-01-31T00:03:21;78478.69;;;-143.36;nan
39209;BME280;24929;51.982;4.664;2023-01-31T00:05:47;78480.69;;;-143.36;nan
39209;BME280;24929;51.982;4.664;2023-01-31T00:08:12;78456.59;;;-143.36;nan
39209;BME280;24929;51.982;4.664;2023-01-31T00:10:39;78448.56;;;-143.36;nan
39209;BME280;24929;51.982;4.664;2023-01-31T00:13:05;78430.50;;;-143.36;nan
39209;BME280;24929;51.982;4.664;2023-01-31T00:15:30;78442.56;;;-143.36;nan
39209;BME280;24929;51.982;4.664;2023-01-31T00:17:55;78408.44;;;-143.36;nan
39209;BME280;24929;51.982;4.664;2023-01-31T00:20:21;78464.63;;;-143.36;nan
39209;BME280;24929;51.982;4.664;2023-01-31T00:22:46;78563.03;;;-143.36;nan
39209;BME280;24929;51.982;4.664;2023-01-31T00:25:11;78458.63;;;-143.36;nan
39209;BME280;24929;51.982;4.664;2023-01-31T00:27:40;78320.09;;;-143.36;nan
39209;BME280;24929;51.982;4.664;2023-01-31T00:30:06;78504.78;;;-143.36;nan
39209;BME280;24929;51.982;4.664;2023-01-31T00:32:31;78502.78;;;-143.36;nan
39209;BME280;24929;51.982;4.664;2023-01-31T00:34:56;78500.78;;;-143.36;nan
39209;BME280;24929;51.982;4.664;2023-01-31T00:37:22;78460.63;;;-143.36;nan
39209;BME280;24929;51.982;4.664;2023-01-31T00:39:47;78490.75;;;-143.36;nan
39209;BME280;24929;51.982;4.664;2023-01-31T00:42:12;78444.56;;;-143.36;nan
39209;BME280;24929;51.982;4.664;2023-01-31T00:44:38;78408.44;;;-143.36;nan
39209;BME280;24929;51.982;4.664;2023-01-31T00:47:04;78444.56;;;-143.36;nan
39209;BME280;24929;51.982;4.664;2023-01-31T00:49:29;78542.94;;;-143.36;nan
39209;BME280;24929;51.982;4.664;2023-01-31T00:51:55;78470.66;;;-143.36;nan
39209;BME280;24929;51.982;4.664;2023-01-31T00:54:20;78617.22;;;-143.36;nan
39209;BME280;24929;51.982;4.664;2023-01-31T00:56:45;78627.25;;;-143.36;nan
39209;BME280;24929;51.982;4.664;2023-01-31T00:59:11;78474.69;;;-143.36;nan
39209;BME280;24929;51.982;4.664;2023-01-31T01:01:37;78466.66;;;-143.36;nan
39209;BME280;24929;51.982;4.664;2023-01-31T01:04:03;78510.81;;;-143.36;nan
39209;BME280;24929;51.982;4.664;2023-01-31T01:06:29;78538.94;;;-143.36;nan
39209;BME280;24929;51.982;4.664;2023-01-31T01:08:54;78358.22;;;-143.36;nan
39209;BME280;24929;51.982;4.664;2023-01-31T01:11:26;78271.91;;;-143.36;nan
39209;BME280;24929;51.982;4.664;2023-01-31T01:13:52;78360.25;;;-143.36;nan
39209;BME280;24929;51.982;4.664;2023-01-31T01:16:20;78328.13;;;-143.36;nan
39209;BME280;24929;51.982;4.664;2023-01-31T01:18:46;78402.41;;;-143.36;nan
39209;BME280;24929;51.982;4.664;2023-01-31T01:21:22;78360.25;;;-143.36;nan
39209;BME280;24929;51.982;4.664;2023-01-31T01:23:49;78462.63;;;-143.36;nan
39209;BME280;24929;51.982;4.664;2023-01-31T01:26:17;78438.53;;;-143.36;nan
39209;BME280;24929;51.982;4.664;2023-01-31T01:28:43;78296.00;;;-143.36;nan
39209;BME280;24929;51.982;4.664;2023-01-31T01:31:12;78227.75;;;-143.36;nan
39209;BME280;24929;51.982;4.664;2023-01-31T01:33:40;78263.88;;;-143.36;nan
39209;BME280;24929;51.982;4.664;2023-01-31T01:36:07;78243.81;;;-143.36;nan
39209;BME280;24929;51.982;4.664;2023-01-31T01:38:33;78253.84;;;-143.36;nan
39209;BME280;24929;51.982;4.664;2023-01-31T01:40:59;78287.97;;;-143.36;nan
39209;BME280;24929;51.982;4.664;2023-01-31T01:43:40;78185.59;;;-143.36;nan
39209;BME280;24929;51.982;4.664;2023-01-31T01:46:08;78213.69;;;-143.36;nan
39209;BME280;24929;51.982;4.664;2023-01-31T01:48:35;78408.44;;;-143.36;nan
39209;BME280;24929;51.982;4.664;2023-01-31T01:51:04;78251.84;;;-143.36;nan
39209;BME280;24929;51.982;4.664;2023-01-31T01:53:32;78193.59;;;-143.36;nan
39209;BME280;24929;51.982;4.664;2023-01-31T01:56:08;78205.66;;;-143.36;nan
39209;BME280;24929;51.982;4.664;2023-01-31T01:58:36;78185.59;;;-143.36;nan
39209;BME280;24929;51.982;4.664;2023-01-31T02:01:05;78085.19;;;-143.36;nan
39209;BME280;24929;51.982;4.664;2023-01-31T02:03:31;78119.34;;;-143.36;nan
39209;BME280;24929;51.982;4.664;2023-01-31T02:06:00;78073.16;;;-143.36;nan
39209;BME280;24929;51.982;4.664;2023-01-31T02:08:29;78081.19;;;-143.36;nan
39209;BME280;24929;51.982;4.664;2023-01-31T02:11:21;78045.06;;;-143.36;nan
39209;BME280;24929;51.982;4.664;2023-01-31T02:13:49;78053.09;;;-143.36;nan
39209;BME280;24929;51.982;4.664;2023-01-31T02:16:15;78053.09;;;-143.36;nan
39209;BME280;24929;51.982;4.664;2023-01-31T02:18:41;78147.44;;;-143.36;nan
39209;BME280;24929;51.982;4.664;2023-01-31T02:27:28;78157.47;;;-143.36;nan
39209;BME280;24929;51.982;4.664;2023-01-31T02:38:37;78151.44;;;-143.36;nan
39209;BME280;24929;51.982;4.664;2023-01-31T02:41:15;78169.53;;;-143.36;nan
39209;BME280;24929;51.982;4.664;2023-01-31T02:46:56;78296.00;;;-143.36;nan
39209;BME280;24929;51.982;4.664;2023-01-31T02:57:48;78163.50;;;-143.36;nan
39209;BME280;24929;51.982;4.664;2023-01-31T03:00:15;78167.50;;;-143.36;nan
39209;BME280;24929;51.982;4.664;2023-01-31T03:02:41;78191.59;;;-143.36;nan
39209;BME280;24929;51.982;4.664;2023-01-31T03:05:09;78221.72;;;-143.36;nan
39209;BME280;24929;51.982;4.664;2023-01-31T03:07:37;78145.44;;;-143.36;nan
39209;BME280;24929;51.982;4.664;2023-01-31T03:12:53;78101.25;;;-143.36;nan
39209;BME280;24929;51.982;4.664;2023-01-31T03:15:36;78063.13;;;-143.36;nan
39209;BME280;24929;51.982;4.664;2023-01-31T03:18:29;78041.03;;;-143.36;nan
39209;BME280;24929;51.982;4.664;2023-01-31T03:23:56;78119.34;;;-143.36;nan
39209;BME280;24929;51.982;4.664;2023-01-31T03:26:23;78103.28;;;-143.36;nan
39209;BME280;24929;51.982;4.664;2023-01-31T03:28:51;78097.25;;;-143.36;nan
39209;BME280;24929;51.982;4.664;2023-01-31T03:31:29;78077.19;;;-143.36;nan
39209;BME280;24929;51.982;4.664;2023-01-31T03:33:59;78111.31;;;-143.36;nan
39209;BME280;24929;51.982;4.664;2023-01-31T03:36:35;78149.44;;;-143.36;nan
39209;BME280;24929;51.982;4.664;2023-01-31T03:39:08;78177.56;;;-143.36;nan
39209;BME280;24929;51.982;4.664;2023-01-31T03:46:48;78183.56;;;-143.36;nan
39209;BME280;24929;51.982;4.664;2023-01-31T03:49:14;78173.53;;;-143.36;nan
39209;BME280;24929;51.982;4.664;2023-01-31T03:51:47;78259.84;;;-143.36;nan
39209;BME280;24929;51.982;4.664;2023-01-31T03:54:22;78141.41;;;-143.36;nan
39209;BME280;24929;51.982;4.664;2023-01-31T03:57:04;77934.66;;;-143.36;nan
39209;BME280;24929;51.982;4.664;2023-01-31T03:59:36;78014.94;;;-143.36;nan
39209;BME280;24929;51.982;4.664;2023-01-31T04:02:03;78051.06;;;-143.36;nan
39209;BME280;24929;51.982;4.664;2023-01-31T04:04:35;78031.00;;;-143.36;nan
39209;BME280;24929;51.982;4.664;2023-01-31T04:07:02;78153.47;;;-143.36;nan
39209;BME280;24929;51.982;4.664;2023-01-31T04:09:28;78127.38;;;-143.36;nan
39209;BME280;24929;51.982;4.664;2023-01-31T04:11:53;78259.84;;;-143.36;nan
39209;BME280;24929;51.982;4.664;2023-01-31T04:14:19;78213.69;;;-143.36;nan
39209;BME280;24929;51.982;4.664;2023-01-31T04:16:44;78181.56;;;-143.36;nan
39209;BME280;24929;51.982;4.664;2023-01-31T04:19:09;78163.50;;;-143.36;nan
39209;BME280;24929;51.982;4.664;2023-01-31T04:21:35;78095.25;;;-143.36;nan
39209;BME280;24929;51.982;4.664;2023-01-31T04:24:00;78165.50;;;-143.36;nan
39209;BME280;24929;51.982;4.664;2023-01-31T04:26:26;78163.50;;;-143.36;nan
39209;BME280;24929;51.982;4.664;2023-01-31T04:28:51;78161.50;;;-143.36;nan
39209;BME280;24929;51.982;4.664;2023-01-31T04:31:17;78165.50;;;-143.36;nan
39209;BME280;24929;51.982;4.664;2023-01-31T04:33:42;78149.44;;;-143.36;nan
39209;BME280;24929;51.982;4.664;2023-01-31T04:36:08;78141.41;;;-143.36;nan
39209;BME280;24929;51.982;4.664;2023-01-31T04:38:33;78169.53;;;-143.36;nan
39209;BME280;24929;51.982;4.664;2023-01-31T04:40:59;78145.44;;;-143.36;nan
39209;BME280;24929;51.982;4.664;2023-01-31T04:43:24;78143.41;;;-143.36;nan
39209;BME280;24929;51.982;4.664;2023-01-31T04:45:49;78137.41;;;-143.36;nan
39209;BME280;24929;51.982;4.664;2023-01-31T04:48:15;78067.13;;;-143.36;nan
39209;BME280;24929;51.982;4.664;2023-01-31T04:50:41;78053.09;;;-143.36;nan
39209;BME280;24929;51.982;4.664;2023-01-31T04:53:06;78145.44;;;-143.36;nan
39209;BME280;24929;51.982;4.664;2023-01-31T04:55:33;78087.22;;;-143.36;nan
39209;BME280;24929;51.982;4.664;2023-01-31T04:57:59;78035.03;;;-143.36;nan
39209;BME280;24929;51.982;4.664;2023-01-31T05:00:24;78029.00;;;-143.36;nan
39209;BME280;24929;51.982;4.664;2023-01-31T05:02:49;78053.09;;;-143.36;nan
39209;BME280;24929;51.982;4.664;2023-01-31T05:05:15;78063.13;;;-143.36;nan
39209;BME280;24929;51.982;4.664;2023-01-31T05:07:43;78000.88;;;-143.36;nan
39209;BME280;24929;51.982;4.664;2023-01-31T05:10:09;78051.06;;;-143.36;nan
39209;BME280;24929;51.982;4.664;2023-01-31T05:12:34;78077.19;;;-143.36;nan
39209;BME280;24929;51.982;4.664;2023-01-31T05:14:59;78065.13;;;-143.36;nan
39209;BME280;24929;51.982;4.664;2023-01-31T05:17:25;78107.28;;;-143.36;nan
39209;BME280;24929;51.982;4.664;2023-01-31T05:19:55;78016.94;;;-143.36;nan
39209;BME280;24929;51.982;4.664;2023-01-31T05:22:20;78008.91;;;-143.36;nan
39209;BME280;24929;51.982;4.664;2023-01-31T05:24:47;77976.81;;;-143.36;nan
39209;BME280;24929;51.982;4.664;2023-01-31T05:27:12;78004.91;;;-143.36;nan
39209;BME280;24929;51.982;4.664;2023-01-31T05:29:38;78059.09;;;-143.36;nan
39209;BME280;24929;51.982;4.664;2023-01-31T05:32:03;78043.03;;;-143.36;nan
39209;BME280;24929;51.982;4.664;2023-01-31T05:34:28;78059.09;;;-143.36;nan
39209;BME280;24929;51.982;4.664;2023-01-31T05:36:57;78031.00;;;-143.36;nan
39209;BME280;24929;51.982;4.664;2023-01-31T05:39:22;78243.81;;;-143.36;nan
39209;BME280;24929;51.982;4.664;2023-01-31T05:41:48;78147.44;;;-143.36;nan
39209;BME280;24929;51.982;4.664;2023-01-31T05:44:13;78109.28;;;-143.36;nan
39209;BME280;24929;51.982;4.664;2023-01-31T05:46:40;78039.03;;;-143.36;nan
39209;BME280;24929;51.982;4.664;2023-01-31T05:49:06;78055.09;;;-143.36;nan
39209;BME280;24929;51.982;4.664;2023-01-31T05:51:32;78067.13;;;-143.36;nan
39209;BME280;24929;51.982;4.664;2023-01-31T05:53:57;78049.06;;;-143.36;nan
39209;BME280;24929;51.982;4.664;2023-01-31T05:56:23;78010.94;;;-143.36;nan
39209;BME280;24929;51.982;4.664;2023-01-31T05:58:49;78002.91;;;-143.36;nan
39209;BME280;24929;51.982;4.664;2023-01-31T06:01:19;77976.81;;;-143.36;nan
39209;BME280;24929;51.982;4.664;2023-01-31T06:03:45;78043.03;;;-143.36;nan
39209;BME280;24929;51.982;4.664;2023-01-31T06:06:11;78031.00;;;-143.36;nan
39209;BME280;24929;51.982;4.664;2023-01-31T06:08:36;78029.00;;;-143.36;nan
39209;BME280;24929;51.982;4.664;2023-01-31T06:11:03;77968.78;;;-143.36;nan
39209;BME280;24929;51.982;4.664;2023-01-31T06:13:32;78016.94;;;-143.36;nan
39209;BME280;24929;51.982;4.664;2023-01-31T06:15:57;78012.94;;;-143.36;nan
39209;BME280;24929;51.982;4.664;2023-01-31T06:18:23;77986.84;;;-143.36;nan
39209;BME280;24929;51.982;4.664;2023-01-31T06:20:49;77986.84;;;-143.36;nan
39209;BME280;24929;51.982;4.664;2023-01-31T06:23:14;78041.03;;;-143.36;nan
39209;BME280;24929;51.982;4.664;2023-01-31T06:25:40;78024.97;;;-143.36;nan
39209;BME280;24929;51.982;4.664;2023-01-31T06:28:05;78037.03;;;-143.36;nan
39209;BME280;24929;51.982;4.664;2023-01-31T06:30:31;77994.88;;;-143.36;nan
39209;BME280;24929;51.982;4.664;2023-01-31T06:32:59;77940.66;;;-143.36;nan
39209;BME280;24929;51.982;4.664;2023-01-31T06:35:25;78043.03;;;-143.36;nan
39209;BME280;24929;51.982;4.664;2023-01-31T06:37:50;78039.03;;;-143.36;nan
39209;BME280;24929;51.982;4.664;2023-01-31T06:40:16;77984.84;;;-143.36;nan
39209;BME280;24929;51.982;4.664;2023-01-31T06:42:41;77980.81;;;-143.36;nan
39209;BME280;24929;51.982;4.664;2023-01-31T06:45:07;77956.72;;;-143.36;nan
39209;BME280;24929;51.982;4.664;2023-01-31T06:47:33;77958.72;;;-143.36;nan
39209;BME280;24929;51.982;4.664;2023-01-31T06:49:58;77936.66;;;-143.36;nan
39209;BME280;24929;51.982;4.664;2023-01-31T06:52:24;77922.59;;;-143.36;nan
39209;BME280;24929;51.982;4.664;2023-01-31T06:54:49;77924.59;;;-143.36;nan
39209;BME280;24929;51.982;4.664;2023-01-31T06:57:15;77894.50;;;-143.36;nan
39209;BME280;24929;51.982;4.664;2023-01-31T06:59:40;77924.59;;;-143.36;nan
39209;BME280;24929;51.982;4.664;2023-01-31T07:02:06;77902.53;;;-143.36;nan
39209;BME280;24929;51.982;4.664;2023-01-31T07:04:31;77868.41;;;-143.36;nan
39209;BME280;24929;51.982;4.664;2023-01-31T07:06:57;77918.59;;;-143.36;nan
39209;BME280;24929;51.982;4.664;2023-01-31T07:09:22;77906.53;;;-143.36;nan
39209;BME280;24929;51.982;4.664;2023-01-31T07:11:48;77872.41;;;-143.36;nan
39209;BME280;24929;51.982;4.664;2023-01-31T07:14:13;77878.44;;;-143.36;nan
39209;BME280;24929;51.982;4.664;2023-01-31T07:16:38;77890.47;;;-143.36;nan
39209;BME280;24929;51.982;4.664;2023-01-31T07:19:04;77874.41;;;-143.36;nan
39209;BME280;24929;51.982;4.664;2023-01-31T07:21:29;77874.41;;;-143.36;nan
39209;BME280;24929;51.982;4.664;2023-01-31T07:23:55;77878.44;;;-143.36;nan
39209;BME280;24929;51.982;4.664;2023-01-31T07:26:20;77912.56;;;-143.36;nan
39209;BME280;24929;51.982;4.664;2023-01-31T07:28:45;77930.63;;;-143.36;nan
39209;BME280;24929;51.982;4.664;2023-01-31T07:31:12;77886.47;;;-143.36;nan
39209;BME280;24929;51.982;4.664;2023-01-31T07:33:39;77896.50;;;-143.36;nan
39209;BME280;24929;51.982;4.664;2023-01-31T07:36:06;77932.63;;;-143.36;nan
39209;BME280;24929;51.982;4.664;2023-01-31T07:38:32;77930.63;;;-143.36;nan
39209;BME280;24929;51.982;4.664;2023-01-31T07:40:59;77884.47;;;-143.36;nan
39209;BME280;24929;51.982;4.664;2023-01-31T07:43:26;77906.53;;;-143.36;nan
39209;BME280;24929;51.982;4.664;2023-01-31T07:45:51;78119.34;;;-143.36;nan
39209;BME280;24929;51.982;4.664;2023-01-31T07:48:17;78135.41;;;-143.36;nan
39209;BME280;24929;51.982;4.664;2023-01-31T07:50:50;78133.38;;;-143.36;nan
39209;BME280;24929;51.982;4.664;2023-01-31T07:53:16;77880.44;;;-143.36;nan
39209;BME280;24929;51.982;4.664;2023-01-31T07:55:42;77970.78;;;-143.36;nan
39209;BME280;24929;51.982;4.664;2023-01-31T07:58:12;78065.13;;;-143.36;nan
39209;BME280;24929;51.982;4.664;2023-01-31T08:00:38;77940.66;;;-143.36;nan
39209;BME280;24929;51.982;4.664;2023-01-31T08:03:24;77998.88;;;-143.36;nan
39209;BME280;24929;51.982;4.664;2023-01-31T08:05:56;78127.38;;;-143.36;nan
39209;BME280;24929;51.982;4.664;2023-01-31T08:08:22;77982.81;;;-143.36;nan
39209;BME280;24929;51.982;4.664;2023-01-31T08:10:47;78147.44;;;-143.36;nan
39209;BME280;24929;51.982;4.664;2023-01-31T08:13:12;78159.47;;;-143.36;nan
39209;BME280;24929;51.982;4.664;2023-01-31T08:15:38;78137.41;;;-143.36;nan
39209;BME280;24929;51.982;4.664;2023-01-31T08:18:03;78051.06;;;-143.36;nan
39209;BME280;24929;51.982;4.664;2023-01-31T08:20:29;78127.38;;;-143.36;nan
39209;BME280;24929;51.982;4.664;2023-01-31T08:22:55;77948.69;;;-143.36;nan
39209;BME280;24929;51.982;4.664;2023-01-31T08:25:24;78097.25;;;-143.36;nan
39209;BME280;24929;51.982;4.664;2023-01-31T08:27:52;78037.03;;;-143.36;nan
39209;BME280;24929;51.982;4.664;2023-01-31T08:30:17;78137.41;;;-143.36;nan
39209;BME280;24929;51.982;4.664;2023-01-31T08:32:43;78179.56;;;-143.36;nan
39209;BME280;24929;51.982;4.664;2023-01-31T08:35:08;77904.53;;;-143.36;nan
39209;BME280;24929;51.982;4.664;2023-01-31T08:37:34;77886.47;;;-143.36;nan
39209;BME280;24929;51.982;4.664;2023-01-31T08:43:20;77828.25;;;-143.36;nan
39209;BME280;24929;51.982;4.664;2023-01-31T08:45:46;77814.19;;;-143.36;nan
39209;BME280;24929;51.982;4.664;2023-01-31T08:48:11;77838.28;;;-143.36;nan
39209;BME280;24929;51.982;4.664;2023-01-31T08:50:36;77816.22;;;-143.36;nan
39209;BME280;24929;51.982;4.664;2023-01-31T08:53:03;77764.00;;;-143.36;nan
39209;BME280;24929;51.982;4.664;2023-01-31T08:55:30;77796.13;;;-143.36;nan
39209;BME280;24929;51.982;4.664;2023-01-31T08:57:55;78095.25;;;-143.36;nan
39209;BME280;24929;51.982;4.664;2023-01-31T09:00:22;78141.41;;;-143.36;nan
39209;BME280;24929;51.982;4.664;2023-01-31T09:02:58;78079.19;;;-143.36;nan
39209;BME280;24929;51.982;4.664;2023-01-31T09:05:25;78103.28;;;-143.36;nan
39209;BME280;24929;51.982;4.664;2023-01-31T09:07:51;78031.00;;;-143.36;nan
39209;BME280;24929;51.982;4.664;2023-01-31T09:10:17;77930.63;;;-143.36;nan
39209;BME280;24929;51.982;4.664;2023-01-31T09:12:43;77906.53;;;-143.36;nan
39209;BME280;24929;51.982;4.664;2023-01-31T09:15:08;77844.31;;;-143.36;nan
39209;BME280;24929;51.982;4.664;2023-01-31T09:17:34;77868.41;;;-143.36;nan
39209;BME280;24929;51.982;4.664;2023-01-31T09:19:59;77866.38;;;-143.36;nan
39209;BME280;24929;51.982;4.664;2023-01-31T09:22:30;77830.25;;;-143.36;nan
39209;BME280;24929;51.982;4.664;2023-01-31T09:24:56;77956.72;;;-143.36;nan
39209;BME280;24929;51.982;4.664;2023-01-31T09:27:21;77880.44;;;-143.36;nan
39209;BME280;24929;51.982;4.664;2023-01-31T09:29:46;77844.31;;;-143.36;nan
39209;BME280;24929;51.982;4.664;2023-01-31T09:32:12;78006.91;;;-143.36;nan
39209;BME280;24929;51.982;4.664;2023-01-31T09:34:37;77824.25;;;-143.36;nan
39209;BME280;24929;51.982;4.664;2023-01-31T09:37:02;77814.19;;;-143.36;nan
39209;BME280;24929;51.982;4.664;2023-01-31T09:39:28;77794.13;;;-143.36;nan
39209;BME280;24929;51.982;4.664;2023-01-31T09:42:01;77918.59;;;-143.36;nan
39209;BME280;24929;51.982;4.664;2023-01-31T09:44:39;77745.94;;;-143.36;nan
39209;BME280;24929;51.982;4.664;2023-01-31T09:47:11;77788.09;;;-143.36;nan
39209;BME280;24929;51.982;4.664;2023-01-31T09:49:45;77768.03;;;-143.36;nan
39209;BME280;24929;51.982;4.664;2023-01-31T09:52:12;77956.72;;;-143.36;nan
39209;BME280;24929;51.982;4.664;2023-01-31T09:54:39;77729.88;;;-143.36;nan
39209;BME280;24929;51.982;4.664;2023-01-31T09:57:14;77701.78;;;-143.36;nan
39209;BME280;24929;51.982;4.664;2023-01-31T10:05:03;77653.63;;;-143.36;nan
39209;BME280;24929;51.982;4.664;2023-01-31T10:07:42;77850.34;;;-143.36;nan
39209;BME280;24929;51.982;4.664;2023-01-31T10:10:29;77689.75;;;-143.36;nan
39209;BME280;24929;51.982;4.664;2023-01-31T10:13:02;77864.38;;;-143.36;nan
39209;BME280;24929;51.982;4.664;2023-01-31T10:15:43;77946.69;;;-143.36;nan
39209;BME280;24929;51.982;4.664;2023-01-31T10:18:25;77914.56;;;-143.36;nan
39209;BME280;24929;51.982;4.664;2023-01-31T10:23:27;77537.19;;;-143.36;nan
39209;BME280;24929;51.982;4.664;2023-01-31T10:26:09;77487.00;;;-143.36;nan
39209;BME280;24929;51.982;4.664;2023-01-31T10:28:48;77495.03;;;-143.36;nan
39209;BME280;24929;51.982;4.664;2023-01-31T10:31:31;77499.06;;;-143.36;nan
39209;BME280;24929;51.982;4.664;2023-01-31T10:34:14;77497.06;;;-143.36;nan
39209;BME280;24929;51.982;4.664;2023-01-31T10:36:43;77478.97;;;-143.36;nan
39209;BME280;24929;51.982;4.664;2023-01-31T10:44:36;77491.03;;;-143.36;nan
39209;BME280;24929;51.982;4.664;2023-01-31T10:47:12;77466.94;;;-143.36;nan
39209;BME280;24929;51.982;4.664;2023-01-31T10:49:38;77497.06;;;-143.36;nan
39209;BME280;24929;51.982;4.664;2023-01-31T10:52:06;77521.13;;;-143.36;nan
39209;BME280;24929;51.982;4.664;2023-01-31T10:57:11;77565.28;;;-143.36;nan
39209;BME280;24929;51.982;4.664;2023-01-31T10:59:38;77485.00;;;-143.36;nan
39209;BME280;24929;51.982;4.664;2023-01-31T11:02:17;77406.72;;;-143.36;nan
39209;BME280;24929;51.982;4.664;2023-01-31T11:04:43;77507.09;;;-143.36;nan
39209;BME280;24929;51.982;4.664;2023-01-31T11:07:08;77517.13;;;-143.36;nan
39209;BME280;24929;51.982;4.664;2023-01-31T11:09:46;77493.03;;;-143.36;nan
39209;BME280;24929;51.982;4.664;2023-01-31T11:12:12;77565.28;;;-143.36;nan
39209;BME280;24929;51.982;4.664;2023-01-31T11:14:37;77521.13;;;-143.36;nan
39209;BME280;24929;51.982;4.664;2023-01-31T11:19:37;77460.91;;;-143.36;nan
39209;BME280;24929;51.982;4.664;2023-01-31T11:22:05;77495.03;;;-143.36;nan
39209;BME280;24929;51.982;4.664;2023-01-31T11:24:33;77497.06;;;-143.36;nan
39209;BME280;24929;51.982;4.664;2023-01-31T11:27:05;77456.91;;;-143.36;nan
39209;BME280;24929;51.982;4.664;2023-01-31T11:29:40;77440.84;;;-143.36;nan
39209;BME280;24929;51.982;4.664;2023-01-31T11:32:31;77448.88;;;-143.36;nan
39209;BME280;24929;51.982;4.664;2023-01-31T11:37:23;77531.16;;;-143.36;nan
39209;BME280;24929;51.982;4.664;2023-01-31T11:40:01;77434.81;;;-143.36;nan
39209;BME280;24929;51.982;4.664;2023-01-31T11:42:27;77470.97;;;-143.36;nan
39209;BME280;24929;51.982;4.664;2023-01-31T11:45:15;77392.69;;;-143.36;nan
39209;BME280;24929;51.982;4.664;2023-01-31T11:47:58;77396.69;;;-143.36;nan
39209;BME280;24929;51.982;4.664;2023-01-31T11:50:50;77374.63;;;-143.36;nan
39209;BME280;24929;51.982;4.664;2023-01-31T11:55:56;77426.78;;;-143.36;nan
39209;BME280;24929;51.982;4.664;2023-01-31T11:58:34;77408.72;;;-143.36;nan
39209;BME280;24929;51.982;4.664;2023-01-31T12:01:06;77422.78;;;-143.36;nan
39209;BME280;24929;51.982;4.664;2023-01-31T12:03:32;77432.81;;;-143.36;nan
39209;BME280;24929;51.982;4.664;2023-01-31T12:06:00;77378.63;;;-143.36;nan
39209;BME280;24929;51.982;4.664;2023-01-31T12:08:48;77436.84;;;-143.36;nan
39209;BME280;24929;51.982;4.664;2023-01-31T12:11:28;77382.63;;;-143.36;nan
39209;BME280;24929;51.982;4.664;2023-01-31T12:16:33;77428.81;;;-143.36;nan
39209;BME280;24929;51.982;4.664;2023-01-31T12:19:19;77338.47;;;-143.36;nan
39209;BME280;24929;51.982;4.664;2023-01-31T12:22:10;77350.53;;;-143.36;nan
39209;BME280;24929;51.982;4.664;2023-01-31T12:24:55;77366.59;;;-143.36;nan
39209;BME280;24929;51.982;4.664;2023-01-31T12:27:58;77328.44;;;-143.36;nan
39209;BME280;24929;51.982;4.664;2023-01-31T12:38:27;77326.44;;;-143.36;nan
39209;BME280;24929;51.982;4.664;2023-01-31T12:47:13;77394.69;;;-143.36;nan
39209;BME280;24929;51.982;4.664;2023-01-31T12:52:20;77312.38;;;-143.36;nan
39209;BME280;24929;51.982;4.664;2023-01-31T12:57:52;77312.38;;;-143.36;nan
39209;BME280;24929;51.982;4.664;2023-01-31T13:05:55;77310.38;;;-143.36;nan
39209;BME280;24929;51.982;4.664;2023-01-31T13:08:27;77342.50;;;-143.36;nan
39209;BME280;24929;51.982;4.664;2023-01-31T13:11:02;77302.34;;;-143.36;nan
39209;BME280;24929;51.982;4.664;2023-01-31T13:13:37;77294.31;;;-143.36;nan
39209;BME280;24929;51.982;4.664;2023-01-31T13:16:17;77276.25;;;-143.36;nan
39209;BME280;24929;51.982;4.664;2023-01-31T13:18:45;77318.41;;;-143.36;nan
39209;BME280;24929;51.982;4.664;2023-01-31T13:21:15;77274.25;;;-143.36;nan
39209;BME280;24929;51.982;4.664;2023-01-31T13:23:45;77310.38;;;-143.36;nan
39209;BME280;24929;51.982;4.664;2023-01-31T13:26:23;77286.31;;;-143.36;nan
39209;BME280;24929;51.982;4.664;2023-01-31T13:29:05;77298.34;;;-143.36;nan
39209;BME280;24929;51.982;4.664;2023-01-31T13:34:23;77284.28;;;-143.36;nan
39209;BME280;24929;51.982;4.664;2023-01-31T13:37:00;77306.38;;;-143.36;nan
39209;BME280;24929;51.982;4.664;2023-01-31T13:39:33;77292.31;;;-143.36;nan
39209;BME280;24929;51.982;4.664;2023-01-31T13:42:00;77366.59;;;-143.36;nan
39209;BME280;24929;51.982;4.664;2023-01-31T13:44:25;77368.59;;;-143.36;nan
39209;BME280;24929;51.982;4.664;2023-01-31T13:47:02;77310.38;;;-143.36;nan
39209;BME280;24929;51.982;4.664;2023-01-31T13:49:35;77330.44;;;-143.36;nan
39209;BME280;24929;51.982;4.664;2023-01-31T13:52:05;77328.44;;;-143.36;nan
39209;BME280;24929;51.982;4.664;2023-01-31T13:54:36;77302.34;;;-143.36;nan
39209;BME280;24929;51.982;4.664;2023-01-31T13:57:05;77338.47;;;-143.36;nan
39209;BME280;24929;51.982;4.664;2023-01-31T13:59:33;77284.28;;;-143.36;nan
39209;BME280;24929;51.982;4.664;2023-01-31T14:02:01;77310.38;;;-143.36;nan
39209;BME280;24929;51.982;4.664;2023-01-31T14:04:35;77282.28;;;-143.36;nan
39209;BME280;24929;51.982;4.664;2023-01-31T14:30:21;77292.31;;;-143.36;nan
39209;BME280;24929;51.982;4.664;2023-01-31T14:35:39;77288.31;;;-143.36;nan
39209;BME280;24929;51.982;4.664;2023-01-31T14:57:18;77386.66;;;-143.36;nan
39209;BME280;24929;51.982;4.664;2023-01-31T14:59:57;77398.69;;;-143.36;nan
39209;BME280;24929;51.982;4.664;2023-01-31T15:04:56;77402.72;;;-143.36;nan
39209;BME280;24929;51.982;4.664;2023-01-31T15:16:05;77390.66;;;-143.36;nan
39209;BME280;24929;51.982;4.664;2023-01-31T15:18:32;77378.63;;;-143.36;nan
39209;BME280;24929;51.982;4.664;2023-01-31T15:21:00;77356.53;;;-143.36;nan
39209;BME280;24929;51.982;4.664;2023-01-31T15:23:30;77354.53;;;-143.36;nan
39209;BME280;24929;51.982;4.664;2023-01-31T15:25:58;77366.59;;;-143.36;nan
39209;BME280;24929;51.982;4.664;2023-01-31T15:28:32;77350.53;;;-143.36;nan
39209;BME280;24929;51.982;4.664;2023-01-31T15:31:05;77342.50;;;-143.36;nan
39209;BME280;24929;51.982;4.664;2023-01-31T15:33:42;77360.56;;;-143.36;nan
39209;BME280;24929;51.982;4.664;2023-01-31T15:38:52;77432.81;;;-143.36;nan
39209;BME280;24929;51.982;4.664;2023-01-31T15:41:23;77410.75;;;-143.36;nan
39209;BME280;24929;51.982;4.664;2023-01-31T15:43:54;77422.78;;;-143.36;nan